sensor_id;sensor_type;location;lat;lon;timestamp;P1;durP1;ratioP1;P2;durP2;ratioP2
32333;SDS011;18810;53.040;8.850;2022-12-11T00:00:38;38.20;;;19.73;;
32333;SDS011;18810;53.040;8.850;2022-12-11T00:03:04;43.50;;;20.52;;
32333;SDS011;18810;53.040;8.850;2022-12-11T00:05:30;37.38;;;19.27;;
32333;SDS011;18810;53.040;8.850;2022-12-11T00:07:56;43.10;;;19.52;;
32333;SDS011;18810;53.040;8.850;2022-12-11T00:10:23;41.28;;;20.27;;
32333;SDS011;18810;53.040;8.850;2022-12-11T00:12:48;36.17;;;19.85;;
32333;SDS011;18810;53.040;8.850;2022-12-11T00:15:14;39.70;;;20.05;;
32333;SDS011;18810;53.040;8.850;2022-12-11T00:17:40;39.85;;;20.70;;
32333;SDS011;18810;53.040;8.850;2022-12-11T00:20:05;39.20;;;20.60;;
32333;SDS011;18810;53.040;8.850;2022-12-11T00:22:32;40.08;;;20.85;;
32333;SDS011;18810;53.040;8.850;2022-12-11T00:24:58;37.78;;;19.73;;
32333;SDS011;18810;53.040;8.850;2022-12-11T00:27:23;43.10;;;20.70;;
32333;SDS011;18810;53.040;8.850;2022-12-11T00:29:49;40.05;;;20.80;;
32333;SDS011;18810;53.040;8.850;2022-12-11T00:32:15;39.75;;;20.33;;
32333;SDS011;18810;53.040;8.850;2022-12-11T00:34:40;39.05;;;18.92;;
32333;SDS011;18810;53.040;8.850;2022-12-11T00:37:06;41.17;;;18.85;;
32333;SDS011;18810;53.040;8.850;2022-12-11T00:39:31;38.00;;;19.80;;
32333;SDS011;18810;53.040;8.850;2022-12-11T00:41:57;33.90;;;18.80;;
32333;SDS011;18810;53.040;8.850;2022-12-11T00:44:23;41.10;;;20.65;;
32333;SDS011;18810;53.040;8.850;2022-12-11T00:46:49;39.45;;;19.70;;
32333;SDS011;18810;53.040;8.850;2022-12-11T00:49:14;37.63;;;19.92;;
32333;SDS011;18810;53.040;8.850;2022-12-11T00:51:40;35.30;;;18.98;;
32333;SDS011;18810;53.040;8.850;2022-12-11T00:54:05;40.63;;;20.65;;
32333;SDS011;18810;53.040;8.850;2022-12-11T00:56:31;35.60;;;18.60;;
32333;SDS011;18810;53.040;8.850;2022-12-11T00:58:57;42.50;;;19.85;;
32333;SDS011;18810;53.040;8.850;2022-12-11T01:01:23;39.22;;;19.10;;
32333;SDS011;18810;53.040;8.850;2022-12-11T01:03:50;35.17;;;18.58;;
32333;SDS011;18810;53.040;8.850;2022-12-11T01:06:17;36.70;;;20.92;;
32333;SDS011;18810;53.040;8.850;2022-12-11T01:08:45;37.40;;;19.02;;
32333;SDS011;18810;53.040;8.850;2022-12-11T01:11:13;34.38;;;19.83;;
32333;SDS011;18810;53.040;8.850;2022-12-11T01:13:40;37.28;;;19.05;;
32333;SDS011;18810;53.040;8.850;2022-12-11T01:16:11;42.17;;;20.95;;
32333;SDS011;18810;53.040;8.850;2022-12-11T01:18:38;37.17;;;18.70;;
32333;SDS011;18810;53.040;8.850;2022-12-11T01:21:08;35.03;;;18.85;;
32333;SDS011;18810;53.040;8.850;2022-12-11T01:23:35;34.75;;;18.35;;
32333;SDS011;18810;53.040;8.850;2022-12-11T01:26:08;36.22;;;19.02;;
32333;SDS011;18810;53.040;8.850;2022-12-11T01:28:39;39.53;;;18.55;;
32333;SDS011;18810;53.040;8.850;2022-12-11T01:31:09;34.47;;;17.92;;
32333;SDS011;18810;53.040;8.850;2022-12-11T01:36:05;40.25;;;20.27;;
32333;SDS011;18810;53.040;8.850;2022-12-11T01:38:42;36.55;;;18.27;;
32333;SDS011;18810;53.040;8.850;2022-12-11T01:41:08;36.65;;;19.90;;
32333;SDS011;18810;53.040;8.850;2022-12-11T01:43:53;37.58;;;19.95;;
32333;SDS011;18810;53.040;8.850;2022-12-11T01:46:40;37.25;;;19.05;;
32333;SDS011;18810;53.040;8.850;2022-12-11T01:49:08;37.03;;;19.45;;
32333;SDS011;18810;53.040;8.850;2022-12-11T01:51:39;36.13;;;19.20;;
32333;SDS011;18810;53.040;8.850;2022-12-11T01:54:19;38.30;;;19.17;;
32333;SDS011;18810;53.040;8.850;2022-12-11T01:56:48;37.00;;;19.23;;
32333;SDS011;18810;53.040;8.850;2022-12-11T01:59:16;37.63;;;20.23;;
32333;SDS011;18810;53.040;8.850;2022-12-11T02:01:55;35.70;;;18.20;;
32333;SDS011;18810;53.040;8.850;2022-12-11T02:04:23;41.45;;;19.83;;
32333;SDS011;18810;53.040;8.850;2022-12-11T02:06:49;36.42;;;19.50;;
32333;SDS011;18810;53.040;8.850;2022-12-11T02:09:35;36.53;;;18.95;;
32333;SDS011;18810;53.040;8.850;2022-12-11T02:15:11;34.30;;;18.23;;
32333;SDS011;18810;53.040;8.850;2022-12-11T02:17:40;39.58;;;20.58;;
32333;SDS011;18810;53.040;8.850;2022-12-11T02:28:36;39.20;;;19.13;;
32333;SDS011;18810;53.040;8.850;2022-12-11T02:34:07;37.55;;;19.58;;
32333;SDS011;18810;53.040;8.850;2022-12-11T02:36:58;40.25;;;19.27;;
32333;SDS011;18810;53.040;8.850;2022-12-11T02:39:28;32.35;;;17.67;;
32333;SDS011;18810;53.040;8.850;2022-12-11T02:41:55;39.97;;;19.58;;
32333;SDS011;18810;53.040;8.850;2022-12-11T02:44:22;35.47;;;18.60;;
32333;SDS011;18810;53.040;8.850;2022-12-11T02:46:50;37.15;;;19.05;;
32333;SDS011;18810;53.040;8.850;2022-12-11T02:49:17;38.55;;;19.98;;
32333;SDS011;18810;53.040;8.850;2022-12-11T02:51:44;40.08;;;19.27;;
32333;SDS011;18810;53.040;8.850;2022-12-11T02:54:17;41.28;;;20.60;;
32333;SDS011;18810;53.040;8.850;2022-12-11T02:56:51;37.28;;;18.95;;
32333;SDS011;18810;53.040;8.850;2022-12-11T02:59:24;45.08;;;21.60;;
32333;SDS011;18810;53.040;8.850;2022-12-11T03:01:55;38.47;;;18.75;;
32333;SDS011;18810;53.040;8.850;2022-12-11T03:04:20;40.22;;;20.30;;
32333;SDS011;18810;53.040;8.850;2022-12-11T03:06:49;37.75;;;19.30;;
32333;SDS011;18810;53.040;8.850;2022-12-11T03:09:17;38.72;;;20.00;;
32333;SDS011;18810;53.040;8.850;2022-12-11T03:11:43;41.17;;;20.85;;
32333;SDS011;18810;53.040;8.850;2022-12-11T03:14:08;39.00;;;19.90;;
32333;SDS011;18810;53.040;8.850;2022-12-11T03:16:36;43.15;;;20.58;;
32333;SDS011;18810;53.040;8.850;2022-12-11T03:19:23;42.70;;;20.05;;
32333;SDS011;18810;53.040;8.850;2022-12-11T03:22:01;41.75;;;20.75;;
32333;SDS011;18810;53.040;8.850;2022-12-11T03:24:40;42.83;;;20.90;;
32333;SDS011;18810;53.040;8.850;2022-12-11T03:27:32;39.60;;;19.23;;
32333;SDS011;18810;53.040;8.850;2022-12-11T03:29:57;37.92;;;20.65;;
32333;SDS011;18810;53.040;8.850;2022-12-11T03:32:27;41.75;;;21.63;;
32333;SDS011;18810;53.040;8.850;2022-12-11T03:35:04;40.63;;;20.80;;
32333;SDS011;18810;53.040;8.850;2022-12-11T03:37:31;43.30;;;21.27;;
32333;SDS011;18810;53.040;8.850;2022-12-11T03:40:02;40.55;;;19.98;;
32333;SDS011;18810;53.040;8.850;2022-12-11T03:42:31;39.08;;;19.70;;
32333;SDS011;18810;53.040;8.850;2022-12-11T03:44:58;42.80;;;21.45;;
32333;SDS011;18810;53.040;8.850;2022-12-11T03:47:26;40.58;;;20.70;;
32333;SDS011;18810;53.040;8.850;2022-12-11T03:49:52;38.95;;;21.40;;
32333;SDS011;18810;53.040;8.850;2022-12-11T03:52:20;40.58;;;21.20;;
32333;SDS011;18810;53.040;8.850;2022-12-11T03:54:47;39.92;;;21.65;;
32333;SDS011;18810;53.040;8.850;2022-12-11T03:57:15;43.75;;;21.27;;
32333;SDS011;18810;53.040;8.850;2022-12-11T04:02:11;40.80;;;20.38;;
32333;SDS011;18810;53.040;8.850;2022-12-11T04:04:37;38.67;;;19.75;;
32333;SDS011;18810;53.040;8.850;2022-12-11T04:07:05;38.42;;;20.45;;
32333;SDS011;18810;53.040;8.850;2022-12-11T04:09:31;39.97;;;21.25;;
32333;SDS011;18810;53.040;8.850;2022-12-11T04:11:57;41.05;;;21.50;;
32333;SDS011;18810;53.040;8.850;2022-12-11T04:14:22;41.03;;;20.60;;
32333;SDS011;18810;53.040;8.850;2022-12-11T04:17:07;38.85;;;20.80;;
32333;SDS011;18810;53.040;8.850;2022-12-11T04:19:32;36.92;;;19.67;;
32333;SDS011;18810;53.040;8.850;2022-12-11T04:22:17;41.58;;;20.77;;
32333;SDS011;18810;53.040;8.850;2022-12-11T04:25:03;38.92;;;20.02;;
32333;SDS011;18810;53.040;8.850;2022-12-11T04:27:30;38.78;;;20.00;;
32333;SDS011;18810;53.040;8.850;2022-12-11T04:30:14;43.17;;;20.30;;
32333;SDS011;18810;53.040;8.850;2022-12-11T04:32:45;39.55;;;19.50;;
32333;SDS011;18810;53.040;8.850;2022-12-11T04:35:11;41.30;;;20.48;;
32333;SDS011;18810;53.040;8.850;2022-12-11T04:37:41;40.30;;;20.85;;
32333;SDS011;18810;53.040;8.850;2022-12-11T04:40:09;41.05;;;20.23;;
32333;SDS011;18810;53.040;8.850;2022-12-11T04:42:37;41.55;;;20.15;;
32333;SDS011;18810;53.040;8.850;2022-12-11T04:45:03;39.25;;;20.65;;
32333;SDS011;18810;53.040;8.850;2022-12-11T04:47:29;42.15;;;20.58;;
32333;SDS011;18810;53.040;8.850;2022-12-11T04:49:55;41.25;;;20.67;;
32333;SDS011;18810;53.040;8.850;2022-12-11T04:52:21;35.22;;;19.27;;
32333;SDS011;18810;53.040;8.850;2022-12-11T04:54:47;46.45;;;21.27;;
32333;SDS011;18810;53.040;8.850;2022-12-11T04:57:13;36.88;;;20.13;;
32333;SDS011;18810;53.040;8.850;2022-12-11T04:59:38;39.35;;;20.33;;
32333;SDS011;18810;53.040;8.850;2022-12-11T05:02:04;39.33;;;20.38;;
32333;SDS011;18810;53.040;8.850;2022-12-11T05:04:30;36.72;;;19.25;;
32333;SDS011;18810;53.040;8.850;2022-12-11T05:06:59;36.88;;;20.55;;
32333;SDS011;18810;53.040;8.850;2022-12-11T05:09:26;39.00;;;20.17;;
32333;SDS011;18810;53.040;8.850;2022-12-11T05:11:52;34.85;;;18.77;;
32333;SDS011;18810;53.040;8.850;2022-12-11T05:14:18;38.40;;;21.48;;
32333;SDS011;18810;53.040;8.850;2022-12-11T05:16:44;40.97;;;20.17;;
32333;SDS011;18810;53.040;8.850;2022-12-11T05:19:09;40.13;;;19.60;;
32333;SDS011;18810;53.040;8.850;2022-12-11T05:21:35;41.80;;;20.50;;
32333;SDS011;18810;53.040;8.850;2022-12-11T05:24:01;39.05;;;19.60;;
32333;SDS011;18810;53.040;8.850;2022-12-11T05:26:27;38.92;;;18.92;;
32333;SDS011;18810;53.040;8.850;2022-12-11T05:28:53;39.13;;;20.10;;
32333;SDS011;18810;53.040;8.850;2022-12-11T05:31:23;37.28;;;20.10;;
32333;SDS011;18810;53.040;8.850;2022-12-11T05:33:50;44.85;;;20.35;;
32333;SDS011;18810;53.040;8.850;2022-12-11T05:36:18;35.17;;;18.50;;
32333;SDS011;18810;53.040;8.850;2022-12-11T05:38:47;39.05;;;20.48;;
32333;SDS011;18810;53.040;8.850;2022-12-11T05:41:15;38.13;;;18.83;;
32333;SDS011;18810;53.040;8.850;2022-12-11T05:43:42;37.05;;;19.23;;
32333;SDS011;18810;53.040;8.850;2022-12-11T05:46:09;38.30;;;20.02;;
32333;SDS011;18810;53.040;8.850;2022-12-11T05:48:37;38.63;;;19.88;;
32333;SDS011;18810;53.040;8.850;2022-12-11T05:51:04;40.88;;;20.48;;
32333;SDS011;18810;53.040;8.850;2022-12-11T05:53:31;41.03;;;20.33;;
32333;SDS011;18810;53.040;8.850;2022-12-11T05:56:00;36.95;;;18.92;;
32333;SDS011;18810;53.040;8.850;2022-12-11T05:58:36;41.30;;;19.60;;
32333;SDS011;18810;53.040;8.850;2022-12-11T06:01:05;37.10;;;18.98;;
32333;SDS011;18810;53.040;8.850;2022-12-11T06:03:36;39.20;;;19.27;;
32333;SDS011;18810;53.040;8.850;2022-12-11T06:06:02;42.70;;;20.88;;
32333;SDS011;18810;53.040;8.850;2022-12-11T06:08:29;44.20;;;20.73;;
32333;SDS011;18810;53.040;8.850;2022-12-11T06:10:55;37.40;;;19.20;;
32333;SDS011;18810;53.040;8.850;2022-12-11T06:13:21;42.80;;;19.58;;
32333;SDS011;18810;53.040;8.850;2022-12-11T06:15:46;41.33;;;20.05;;
32333;SDS011;18810;53.040;8.850;2022-12-11T06:18:12;37.90;;;18.77;;
32333;SDS011;18810;53.040;8.850;2022-12-11T06:20:38;40.85;;;19.98;;
32333;SDS011;18810;53.040;8.850;2022-12-11T06:23:03;43.30;;;20.35;;
32333;SDS011;18810;53.040;8.850;2022-12-11T06:25:29;39.42;;;20.08;;
32333;SDS011;18810;53.040;8.850;2022-12-11T06:27:55;38.13;;;18.92;;
32333;SDS011;18810;53.040;8.850;2022-12-11T06:30:21;40.38;;;19.60;;
32333;SDS011;18810;53.040;8.850;2022-12-11T06:32:47;38.78;;;19.02;;
32333;SDS011;18810;53.040;8.850;2022-12-11T06:35:12;39.30;;;19.92;;
32333;SDS011;18810;53.040;8.850;2022-12-11T06:37:38;38.40;;;18.75;;
32333;SDS011;18810;53.040;8.850;2022-12-11T06:40:07;38.22;;;19.40;;
32333;SDS011;18810;53.040;8.850;2022-12-11T06:42:34;39.97;;;18.58;;
32333;SDS011;18810;53.040;8.850;2022-12-11T06:45:00;37.85;;;18.42;;
32333;SDS011;18810;53.040;8.850;2022-12-11T06:47:26;37.63;;;19.13;;
32333;SDS011;18810;53.040;8.850;2022-12-11T06:49:53;40.38;;;18.35;;
32333;SDS011;18810;53.040;8.850;2022-12-11T06:52:20;41.42;;;19.67;;
32333;SDS011;18810;53.040;8.850;2022-12-11T06:54:47;37.47;;;18.70;;
32333;SDS011;18810;53.040;8.850;2022-12-11T06:57:12;35.83;;;17.40;;
32333;SDS011;18810;53.040;8.850;2022-12-11T06:59:38;37.50;;;18.60;;
32333;SDS011;18810;53.040;8.850;2022-12-11T07:02:04;41.30;;;20.50;;
32333;SDS011;18810;53.040;8.850;2022-12-11T07:04:30;43.50;;;19.33;;
32333;SDS011;18810;53.040;8.850;2022-12-11T07:06:56;36.03;;;18.58;;
32333;SDS011;18810;53.040;8.850;2022-12-11T07:09:22;41.40;;;19.08;;
32333;SDS011;18810;53.040;8.850;2022-12-11T07:11:48;39.33;;;18.63;;
32333;SDS011;18810;53.040;8.850;2022-12-11T07:14:14;41.65;;;20.55;;
32333;SDS011;18810;53.040;8.850;2022-12-11T07:16:40;38.90;;;19.48;;
32333;SDS011;18810;53.040;8.850;2022-12-11T07:19:06;40.65;;;19.35;;
32333;SDS011;18810;53.040;8.850;2022-12-11T07:21:31;39.22;;;18.13;;
32333;SDS011;18810;53.040;8.850;2022-12-11T07:23:57;38.33;;;18.48;;
32333;SDS011;18810;53.040;8.850;2022-12-11T07:26:23;41.72;;;20.20;;
32333;SDS011;18810;53.040;8.850;2022-12-11T07:28:48;40.45;;;20.45;;
32333;SDS011;18810;53.040;8.850;2022-12-11T07:31:15;36.42;;;18.15;;
32333;SDS011;18810;53.040;8.850;2022-12-11T07:33:47;39.78;;;19.80;;
32333;SDS011;18810;53.040;8.850;2022-12-11T07:36:20;40.72;;;19.65;;
32333;SDS011;18810;53.040;8.850;2022-12-11T07:38:47;41.60;;;20.35;;
32333;SDS011;18810;53.040;8.850;2022-12-11T07:41:14;41.55;;;19.98;;
32333;SDS011;18810;53.040;8.850;2022-12-11T07:43:40;38.83;;;19.33;;
32333;SDS011;18810;53.040;8.850;2022-12-11T07:46:11;43.58;;;20.52;;
32333;SDS011;18810;53.040;8.850;2022-12-11T07:48:39;41.15;;;19.20;;
32333;SDS011;18810;53.040;8.850;2022-12-11T07:51:16;40.40;;;19.65;;
32333;SDS011;18810;53.040;8.850;2022-12-11T07:53:44;41.35;;;20.63;;
32333;SDS011;18810;53.040;8.850;2022-12-11T07:56:10;41.08;;;19.38;;
32333;SDS011;18810;53.040;8.850;2022-12-11T07:58:36;40.00;;;19.40;;
32333;SDS011;18810;53.040;8.850;2022-12-11T08:01:03;40.75;;;20.80;;
32333;SDS011;18810;53.040;8.850;2022-12-11T08:03:30;44.00;;;21.38;;
32333;SDS011;18810;53.040;8.850;2022-12-11T08:05:55;39.75;;;18.58;;
32333;SDS011;18810;53.040;8.850;2022-12-11T08:08:21;45.05;;;21.90;;
32333;SDS011;18810;53.040;8.850;2022-12-11T08:10:47;50.63;;;26.75;;
32333;SDS011;18810;53.040;8.850;2022-12-11T08:13:13;43.15;;;21.13;;
32333;SDS011;18810;53.040;8.850;2022-12-11T08:15:39;40.33;;;20.45;;
32333;SDS011;18810;53.040;8.850;2022-12-11T08:18:05;49.03;;;22.80;;
32333;SDS011;18810;53.040;8.850;2022-12-11T08:20:31;47.33;;;22.92;;
32333;SDS011;18810;53.040;8.850;2022-12-11T08:22:57;43.83;;;22.38;;
32333;SDS011;18810;53.040;8.850;2022-12-11T08:25:23;41.20;;;19.77;;
32333;SDS011;18810;53.040;8.850;2022-12-11T08:27:48;38.50;;;19.08;;
32333;SDS011;18810;53.040;8.850;2022-12-11T08:30:14;39.28;;;20.00;;
32333;SDS011;18810;53.040;8.850;2022-12-11T08:32:40;37.83;;;19.58;;
32333;SDS011;18810;53.040;8.850;2022-12-11T08:35:06;38.58;;;20.40;;
32333;SDS011;18810;53.040;8.850;2022-12-11T08:37:32;37.38;;;19.15;;
32333;SDS011;18810;53.040;8.850;2022-12-11T08:39:58;41.08;;;19.17;;
32333;SDS011;18810;53.040;8.850;2022-12-11T08:42:24;36.42;;;18.02;;
32333;SDS011;18810;53.040;8.850;2022-12-11T08:44:49;38.80;;;20.00;;
32333;SDS011;18810;53.040;8.850;2022-12-11T08:47:15;41.45;;;20.75;;
32333;SDS011;18810;53.040;8.850;2022-12-11T08:49:41;44.03;;;20.95;;
32333;SDS011;18810;53.040;8.850;2022-12-11T08:52:07;42.10;;;19.92;;
32333;SDS011;18810;53.040;8.850;2022-12-11T08:54:33;43.30;;;19.65;;
32333;SDS011;18810;53.040;8.850;2022-12-11T08:56:58;43.38;;;21.45;;
32333;SDS011;18810;53.040;8.850;2022-12-11T08:59:24;39.60;;;20.98;;
32333;SDS011;18810;53.040;8.850;2022-12-11T09:01:50;42.08;;;19.98;;
32333;SDS011;18810;53.040;8.850;2022-12-11T09:04:16;41.75;;;19.38;;
32333;SDS011;18810;53.040;8.850;2022-12-11T09:06:41;42.13;;;21.23;;
32333;SDS011;18810;53.040;8.850;2022-12-11T09:09:07;37.17;;;19.27;;
32333;SDS011;18810;53.040;8.850;2022-12-11T09:11:34;39.35;;;19.00;;
32333;SDS011;18810;53.040;8.850;2022-12-11T09:14:00;46.63;;;21.83;;
32333;SDS011;18810;53.040;8.850;2022-12-11T09:16:26;44.95;;;21.25;;
32333;SDS011;18810;53.040;8.850;2022-12-11T09:18:53;44.58;;;21.75;;
32333;SDS011;18810;53.040;8.850;2022-12-11T09:21:21;44.13;;;20.73;;
32333;SDS011;18810;53.040;8.850;2022-12-11T09:23:51;42.30;;;20.92;;
32333;SDS011;18810;53.040;8.850;2022-12-11T09:26:18;38.80;;;19.30;;
32333;SDS011;18810;53.040;8.850;2022-12-11T09:28:44;40.90;;;19.75;;
32333;SDS011;18810;53.040;8.850;2022-12-11T09:31:11;41.33;;;19.20;;
32333;SDS011;18810;53.040;8.850;2022-12-11T09:36:07;37.85;;;17.83;;
32333;SDS011;18810;53.040;8.850;2022-12-11T09:38:34;36.53;;;18.55;;
32333;SDS011;18810;53.040;8.850;2022-12-11T09:41:00;40.20;;;19.08;;
32333;SDS011;18810;53.040;8.850;2022-12-11T09:46:25;44.00;;;19.95;;
32333;SDS011;18810;53.040;8.850;2022-12-11T09:48:52;40.00;;;19.63;;
32333;SDS011;18810;53.040;8.850;2022-12-11T09:54:13;39.88;;;19.08;;
32333;SDS011;18810;53.040;8.850;2022-12-11T09:56:44;38.60;;;19.17;;
32333;SDS011;18810;53.040;8.850;2022-12-11T10:02:07;41.28;;;21.10;;
32333;SDS011;18810;53.040;8.850;2022-12-11T10:07:33;41.22;;;19.65;;
32333;SDS011;18810;53.040;8.850;2022-12-11T10:13:01;36.45;;;18.88;;
32333;SDS011;18810;53.040;8.850;2022-12-11T10:15:45;37.67;;;19.15;;
32333;SDS011;18810;53.040;8.850;2022-12-11T10:18:17;42.13;;;21.67;;
32333;SDS011;18810;53.040;8.850;2022-12-11T10:20:46;41.03;;;21.17;;
32333;SDS011;18810;53.040;8.850;2022-12-11T10:23:39;41.28;;;19.17;;
32333;SDS011;18810;53.040;8.850;2022-12-11T10:26:10;42.67;;;20.33;;
32333;SDS011;18810;53.040;8.850;2022-12-11T10:28:47;40.22;;;19.15;;
32333;SDS011;18810;53.040;8.850;2022-12-11T10:34:03;41.47;;;20.35;;
32333;SDS011;18810;53.040;8.850;2022-12-11T10:36:36;45.38;;;22.92;;
32333;SDS011;18810;53.040;8.850;2022-12-11T10:39:09;40.40;;;22.63;;
32333;SDS011;18810;53.040;8.850;2022-12-11T10:41:44;45.28;;;23.60;;
32333;SDS011;18810;53.040;8.850;2022-12-11T10:47:04;42.40;;;21.23;;
32333;SDS011;18810;53.040;8.850;2022-12-11T10:49:34;49.03;;;21.85;;
32333;SDS011;18810;53.040;8.850;2022-12-11T10:52:01;40.75;;;21.02;;
32333;SDS011;18810;53.040;8.850;2022-12-11T10:54:44;39.15;;;19.48;;
32333;SDS011;18810;53.040;8.850;2022-12-11T10:57:13;48.92;;;22.67;;
32333;SDS011;18810;53.040;8.850;2022-12-11T10:59:40;41.67;;;20.60;;
32333;SDS011;18810;53.040;8.850;2022-12-11T11:04:41;46.38;;;21.05;;
32333;SDS011;18810;53.040;8.850;2022-12-11T11:07:13;44.67;;;21.77;;
32333;SDS011;18810;53.040;8.850;2022-12-11T11:09:43;43.40;;;20.40;;
32333;SDS011;18810;53.040;8.850;2022-12-11T11:12:22;38.63;;;19.67;;
32333;SDS011;18810;53.040;8.850;2022-12-11T11:14:58;42.08;;;20.02;;
32333;SDS011;18810;53.040;8.850;2022-12-11T11:17:30;38.33;;;20.50;;
32333;SDS011;18810;53.040;8.850;2022-12-11T11:19:59;43.42;;;21.10;;
32333;SDS011;18810;53.040;8.850;2022-12-11T11:22:37;44.83;;;20.73;;
32333;SDS011;18810;53.040;8.850;2022-12-11T11:25:19;40.92;;;21.60;;
32333;SDS011;18810;53.040;8.850;2022-12-11T11:30:33;43.85;;;20.88;;
32333;SDS011;18810;53.040;8.850;2022-12-11T11:33:11;41.75;;;21.65;;
32333;SDS011;18810;53.040;8.850;2022-12-11T11:35:52;52.00;;;22.85;;
32333;SDS011;18810;53.040;8.850;2022-12-11T11:38:45;41.88;;;21.17;;
32333;SDS011;18810;53.040;8.850;2022-12-11T11:46:36;44.35;;;20.23;;
32333;SDS011;18810;53.040;8.850;2022-12-11T11:54:30;46.97;;;20.55;;
32333;SDS011;18810;53.040;8.850;2022-12-11T11:57:00;43.95;;;20.90;;
32333;SDS011;18810;53.040;8.850;2022-12-11T11:59:45;43.50;;;20.92;;
32333;SDS011;18810;53.040;8.850;2022-12-11T12:02:16;40.53;;;19.67;;
32333;SDS011;18810;53.040;8.850;2022-12-11T12:04:43;44.35;;;19.55;;
32333;SDS011;18810;53.040;8.850;2022-12-11T12:07:26;42.55;;;19.75;;
32333;SDS011;18810;53.040;8.850;2022-12-11T12:12:46;49.50;;;22.02;;
32333;SDS011;18810;53.040;8.850;2022-12-11T12:15:28;43.65;;;21.30;;
32333;SDS011;18810;53.040;8.850;2022-12-11T12:18:18;43.50;;;21.63;;
32333;SDS011;18810;53.040;8.850;2022-12-11T12:29:51;50.78;;;22.02;;
32333;SDS011;18810;53.040;8.850;2022-12-11T12:40:48;47.35;;;21.02;;
32333;SDS011;18810;53.040;8.850;2022-12-11T12:44:05;54.55;;;24.42;;
32333;SDS011;18810;53.040;8.850;2022-12-11T12:46:39;59.80;;;27.70;;
32333;SDS011;18810;53.040;8.850;2022-12-11T12:49:11;51.05;;;24.92;;
32333;SDS011;18810;53.040;8.850;2022-12-11T12:51:43;53.67;;;23.90;;
32333;SDS011;18810;53.040;8.850;2022-12-11T12:54:11;54.55;;;25.13;;
32333;SDS011;18810;53.040;8.850;2022-12-11T12:56:41;53.70;;;24.77;;
32333;SDS011;18810;53.040;8.850;2022-12-11T12:59:22;56.90;;;28.75;;
32333;SDS011;18810;53.040;8.850;2022-12-11T13:01:49;53.92;;;22.88;;
32333;SDS011;18810;53.040;8.850;2022-12-11T13:07:20;44.60;;;21.90;;
32333;SDS011;18810;53.040;8.850;2022-12-11T13:09:58;48.33;;;22.02;;
32333;SDS011;18810;53.040;8.850;2022-12-11T13:12:30;53.78;;;23.58;;
32333;SDS011;18810;53.040;8.850;2022-12-11T13:17:51;51.05;;;23.13;;
32333;SDS011;18810;53.040;8.850;2022-12-11T13:20:18;60.92;;;23.55;;
32333;SDS011;18810;53.040;8.850;2022-12-11T13:27:51;48.38;;;23.13;;
32333;SDS011;18810;53.040;8.850;2022-12-11T13:30:28;51.50;;;22.30;;
32333;SDS011;18810;53.040;8.850;2022-12-11T13:35:38;48.80;;;22.58;;
32333;SDS011;18810;53.040;8.850;2022-12-11T13:38:06;49.60;;;21.67;;
32333;SDS011;18810;53.040;8.850;2022-12-11T13:40:41;52.95;;;22.67;;
32333;SDS011;18810;53.040;8.850;2022-12-11T13:43:18;50.50;;;23.25;;
32333;SDS011;18810;53.040;8.850;2022-12-11T13:45:54;59.05;;;24.10;;
32333;SDS011;18810;53.040;8.850;2022-12-11T13:51:35;51.83;;;22.77;;
32333;SDS011;18810;53.040;8.850;2022-12-11T13:54:06;47.45;;;22.85;;
32333;SDS011;18810;53.040;8.850;2022-12-11T13:56:37;52.45;;;23.65;;
32333;SDS011;18810;53.040;8.850;2022-12-11T13:59:03;51.95;;;23.17;;
32333;SDS011;18810;53.040;8.850;2022-12-11T14:01:29;52.22;;;23.00;;
32333;SDS011;18810;53.040;8.850;2022-12-11T14:06:26;55.33;;;24.27;;
32333;SDS011;18810;53.040;8.850;2022-12-11T14:08:55;53.00;;;24.02;;
32333;SDS011;18810;53.040;8.850;2022-12-11T14:11:25;58.15;;;27.08;;
32333;SDS011;18810;53.040;8.850;2022-12-11T14:13:57;56.15;;;25.55;;
32333;SDS011;18810;53.040;8.850;2022-12-11T14:16:26;50.53;;;23.10;;
32333;SDS011;18810;53.040;8.850;2022-12-11T14:18:53;53.70;;;23.23;;
32333;SDS011;18810;53.040;8.850;2022-12-11T14:21:23;55.03;;;26.10;;
32333;SDS011;18810;53.040;8.850;2022-12-11T14:23:54;59.45;;;25.58;;
32333;SDS011;18810;53.040;8.850;2022-12-11T14:26:23;48.65;;;24.92;;
32333;SDS011;18810;53.040;8.850;2022-12-11T14:28:56;62.13;;;27.85;;
32333;SDS011;18810;53.040;8.850;2022-12-11T14:31:29;62.28;;;30.00;;
32333;SDS011;18810;53.040;8.850;2022-12-11T14:34:11;56.72;;;28.00;;
32333;SDS011;18810;53.040;8.850;2022-12-11T14:36:41;58.13;;;27.58;;
32333;SDS011;18810;53.040;8.850;2022-12-11T14:39:16;60.10;;;26.08;;
32333;SDS011;18810;53.040;8.850;2022-12-11T14:42:00;54.83;;;24.20;;
32333;SDS011;18810;53.040;8.850;2022-12-11T14:44:31;51.40;;;25.05;;
32333;SDS011;18810;53.040;8.850;2022-12-11T14:47:05;50.58;;;23.73;;
32333;SDS011;18810;53.040;8.850;2022-12-11T14:52:14;56.67;;;24.20;;
32333;SDS011;18810;53.040;8.850;2022-12-11T14:54:52;48.88;;;23.83;;
32333;SDS011;18810;53.040;8.850;2022-12-11T14:57:24;58.35;;;26.13;;
32333;SDS011;18810;53.040;8.850;2022-12-11T14:59:52;61.20;;;26.48;;
32333;SDS011;18810;53.040;8.850;2022-12-11T15:05:00;52.83;;;24.40;;
32333;SDS011;18810;53.040;8.850;2022-12-11T15:07:26;55.22;;;24.77;;
32333;SDS011;18810;53.040;8.850;2022-12-11T15:09:52;58.83;;;25.33;;
32333;SDS011;18810;53.040;8.850;2022-12-11T15:12:18;61.13;;;26.88;;
32333;SDS011;18810;53.040;8.850;2022-12-11T15:17:15;55.00;;;25.20;;
32333;SDS011;18810;53.040;8.850;2022-12-11T15:19:41;69.63;;;31.60;;
32333;SDS011;18810;53.040;8.850;2022-12-11T15:22:12;69.72;;;29.80;;
32333;SDS011;18810;53.040;8.850;2022-12-11T15:24:41;64.38;;;30.58;;
32333;SDS011;18810;53.040;8.850;2022-12-11T15:29:56;59.75;;;29.48;;
32333;SDS011;18810;53.040;8.850;2022-12-11T15:32:22;73.40;;;31.00;;
32333;SDS011;18810;53.040;8.850;2022-12-11T15:39:53;59.80;;;26.33;;
32333;SDS011;18810;53.040;8.850;2022-12-11T15:42:25;56.55;;;25.77;;
32333;SDS011;18810;53.040;8.850;2022-12-11T15:44:55;62.88;;;27.45;;
32333;SDS011;18810;53.040;8.850;2022-12-11T15:47:23;65.40;;;28.10;;
32333;SDS011;18810;53.040;8.850;2022-12-11T15:50:36;68.63;;;29.27;;
32333;SDS011;18810;53.040;8.850;2022-12-11T15:52:45;58.60;;;27.27;;
32333;SDS011;18810;53.040;8.850;2022-12-11T15:55:11;58.85;;;27.73;;
32333;SDS011;18810;53.040;8.850;2022-12-11T15:57:37;67.07;;;31.33;;
32333;SDS011;18810;53.040;8.850;2022-12-11T16:00:15;65.60;;;32.17;;
32333;SDS011;18810;53.040;8.850;2022-12-11T16:02:43;63.92;;;30.73;;
32333;SDS011;18810;53.040;8.850;2022-12-11T16:05:09;67.03;;;31.17;;
32333;SDS011;18810;53.040;8.850;2022-12-11T16:07:35;71.55;;;29.10;;
32333;SDS011;18810;53.040;8.850;2022-12-11T16:10:01;67.75;;;29.65;;
32333;SDS011;18810;53.040;8.850;2022-12-11T16:12:27;62.13;;;26.58;;
32333;SDS011;18810;53.040;8.850;2022-12-11T16:14:53;67.07;;;29.98;;
32333;SDS011;18810;53.040;8.850;2022-12-11T16:17:18;63.72;;;27.65;;
32333;SDS011;18810;53.040;8.850;2022-12-11T16:19:44;69.57;;;29.35;;
32333;SDS011;18810;53.040;8.850;2022-12-11T16:22:10;70.47;;;28.98;;
32333;SDS011;18810;53.040;8.850;2022-12-11T16:24:37;67.18;;;28.88;;
32333;SDS011;18810;53.040;8.850;2022-12-11T16:27:03;61.88;;;28.83;;